createdAt,value
2023-05-06T00:02:08.304Z,2.60
2023-05-06T00:04:36.037Z,3.47
2023-05-06T00:07:03.946Z,3.53
2023-05-06T00:09:33.000Z,3.58
2023-05-06T00:12:00.710Z,3.20
2023-05-06T00:14:28.418Z,3.08
2023-05-06T00:16:56.137Z,3.30
2023-05-06T00:19:24.114Z,3.40
2023-05-06T00:21:51.792Z,3.42
2023-05-06T00:24:19.468Z,3.42
2023-05-06T00:26:48.620Z,3.65
2023-05-06T00:29:16.424Z,3.78
2023-05-06T00:31:45.229Z,3.47
2023-05-06T00:34:13.030Z,3.33
2023-05-06T00:36:42.768Z,3.60
2023-05-06T00:39:10.848Z,3.60
2023-05-06T00:41:38.594Z,3.80
2023-05-06T00:44:07.675Z,3.58
2023-05-06T00:46:35.720Z,3.35
2023-05-06T00:49:03.665Z,2.97
2023-05-06T00:51:32.174Z,3.35
2023-05-06T00:54:00.234Z,3.38
2023-05-06T00:56:28.235Z,3.30
2023-05-06T00:58:56.145Z,3.60
2023-05-06T01:01:25.560Z,3.60
2023-05-06T01:03:57.538Z,4.28
2023-05-06T01:06:30.853Z,3.92
2023-05-06T01:09:05.985Z,3.78
2023-05-06T01:11:42.435Z,3.75
2023-05-06T01:14:19.128Z,3.55
2023-05-06T01:19:35.218Z,3.83
2023-05-06T01:22:06.037Z,3.15
2023-05-06T01:24:39.769Z,3.58
2023-05-06T01:27:07.849Z,3.38
2023-05-06T01:29:37.853Z,3.45
2023-05-06T01:32:22.037Z,3.03
2023-05-06T01:34:56.777Z,3.35
2023-05-06T01:37:31.464Z,3.85
2023-05-06T01:40:01.893Z,3.90
2023-05-06T01:42:31.257Z,3.20
2023-05-06T01:45:03.246Z,3.33
2023-05-06T01:47:31.349Z,3.22
2023-05-06T01:50:00.328Z,3.15
2023-05-06T01:52:28.128Z,3.38
2023-05-06T01:54:55.817Z,3.40
2023-05-06T01:57:24.892Z,3.72
2023-05-06T01:59:52.818Z,2.95
2023-05-06T02:02:20.591Z,3.25
2023-05-06T02:04:48.293Z,3.88
2023-05-06T02:07:15.959Z,3.30
2023-05-06T02:09:43.678Z,3.53
2023-05-06T02:12:11.427Z,3.40
2023-05-06T02:14:40.482Z,3.35
2023-05-06T02:17:08.272Z,3.15
2023-05-06T02:19:36.039Z,3.28
2023-05-06T02:22:03.781Z,3.15
2023-05-06T02:24:31.502Z,3.22
2023-05-06T02:26:59.172Z,3.20
2023-05-06T02:29:26.883Z,3.40
2023-05-06T02:31:56.122Z,2.92
2023-05-06T02:34:23.880Z,3.20
2023-05-06T02:36:51.576Z,3.00
2023-05-06T02:39:19.374Z,3.63
2023-05-06T02:41:47.080Z,4.07
2023-05-06T02:44:14.785Z,3.28
2023-05-06T02:46:43.617Z,3.40
2023-05-06T02:49:12.691Z,3.20
2023-05-06T02:51:40.452Z,3.38
2023-05-06T02:54:08.125Z,2.95
2023-05-06T02:56:36.259Z,3.17
2023-05-06T02:59:04.601Z,3.50
2023-05-06T03:01:32.319Z,3.63
2023-05-06T03:04:00.079Z,3.13
2023-05-06T03:06:29.197Z,3.17
2023-05-06T03:08:56.929Z,2.97
2023-05-06T03:11:24.805Z,2.65
2023-05-06T03:13:52.526Z,3.10
2023-05-06T03:16:20.234Z,2.92
2023-05-06T03:18:47.979Z,3.50
2023-05-06T03:21:15.823Z,3.20
2023-05-06T03:23:44.934Z,2.90
2023-05-06T03:26:12.652Z,3.05
2023-05-06T03:28:41.953Z,2.90
2023-05-06T03:31:09.840Z,3.13
2023-05-06T03:33:37.659Z,3.28
2023-05-06T03:36:06.100Z,3.17
2023-05-06T03:38:33.943Z,2.60
2023-05-06T03:41:03.092Z,3.20
2023-05-06T03:43:30.838Z,2.97
2023-05-06T03:45:58.920Z,2.78
2023-05-06T03:48:26.630Z,2.72
2023-05-06T03:50:54.363Z,3.13
2023-05-06T03:53:22.545Z,2.78
2023-05-06T03:55:50.385Z,3.10
2023-05-06T03:58:19.432Z,3.10
2023-05-06T04:00:47.162Z,2.63
2023-05-06T04:03:14.960Z,2.75
2023-05-06T04:05:42.687Z,2.90
2023-05-06T04:08:10.440Z,2.70
2023-05-06T04:10:40.973Z,2.92
2023-05-06T04:13:08.751Z,3.15
2023-05-06T04:15:38.653Z,2.80
2023-05-06T04:18:07.507Z,3.08
2023-05-06T04:20:35.783Z,3.00
2023-05-06T04:23:03.578Z,3.13
2023-05-06T04:25:31.276Z,2.90
2023-05-06T04:27:58.989Z,2.78
2023-05-06T04:30:27.177Z,2.67
2023-05-06T04:32:56.296Z,2.90
2023-05-06T04:35:24.088Z,2.67
2023-05-06T04:37:51.759Z,2.47
2023-05-06T04:40:19.744Z,2.85
2023-05-06T04:42:47.412Z,2.30
2023-05-06T04:45:15.720Z,2.80
2023-05-06T04:47:43.531Z,2.53
2023-05-06T04:50:13.569Z,2.92
2023-05-06T04:52:41.296Z,2.95
2023-05-06T04:55:11.252Z,2.50
2023-05-06T04:57:39.193Z,3.10
2023-05-06T05:00:10.359Z,3.05
2023-05-06T05:02:38.425Z,2.53
2023-05-06T05:05:07.267Z,2.53
2023-05-06T05:07:36.468Z,2.80
2023-05-06T05:10:04.528Z,2.17
2023-05-06T05:12:32.480Z,2.45
2023-05-06T05:15:00.208Z,2.20
2023-05-06T05:17:27.911Z,2.20
2023-05-06T05:19:55.636Z,1.98
2023-05-06T05:22:23.354Z,2.38
2023-05-06T05:24:52.392Z,1.98
2023-05-06T05:27:20.486Z,2.45
2023-05-06T05:29:48.311Z,2.45
2023-05-06T05:32:16.189Z,2.50
2023-05-06T05:34:43.902Z,2.60
2023-05-06T05:37:11.679Z,2.88
2023-05-06T05:39:39.374Z,2.10
2023-05-06T05:42:08.443Z,2.05
2023-05-06T05:44:36.184Z,2.20
2023-05-06T05:47:04.000Z,2.40
2023-05-06T05:49:31.721Z,2.00
2023-05-06T05:51:59.459Z,2.33
2023-05-06T05:54:27.211Z,2.17
2023-05-06T05:56:54.954Z,1.88
2023-05-06T05:59:24.037Z,2.35
2023-05-06T06:01:51.833Z,1.90
2023-05-06T06:04:19.663Z,2.35
2023-05-06T06:06:47.540Z,2.05
2023-05-06T06:09:16.735Z,2.30
2023-05-06T06:11:44.489Z,2.72
2023-05-06T06:14:12.308Z,2.53
2023-05-06T06:16:41.456Z,2.70
2023-05-06T06:19:09.334Z,2.38
2023-05-06T06:21:37.082Z,2.83
2023-05-06T06:24:05.508Z,3.75
2023-05-06T06:26:33.336Z,4.38
2023-05-06T06:29:01.157Z,5.15
2023-05-06T06:31:29.283Z,5.55
2023-05-06T06:33:58.514Z,4.40
2023-05-06T06:36:26.302Z,5.00
2023-05-06T06:38:54.030Z,5.22
2023-05-06T06:41:21.704Z,4.90
2023-05-06T06:43:49.400Z,4.90
2023-05-06T06:46:17.227Z,4.18
2023-05-06T06:48:45.033Z,4.95
2023-05-06T06:51:14.074Z,5.43
2023-05-06T06:53:41.767Z,4.40
2023-05-06T06:56:11.816Z,4.38
2023-05-06T06:58:39.628Z,3.80
2023-05-06T07:01:07.421Z,3.53
2023-05-06T07:03:35.120Z,3.42
2023-05-06T07:06:02.852Z,3.65
2023-05-06T07:08:31.880Z,3.63
2023-05-06T07:10:59.609Z,4.03
2023-05-06T07:13:27.337Z,3.58
2023-05-06T07:15:55.003Z,3.30
2023-05-06T07:18:22.720Z,3.05
2023-05-06T07:20:50.515Z,4.25
2023-05-06T07:23:18.192Z,3.20
2023-05-06T07:25:47.229Z,3.60
2023-05-06T07:28:15.617Z,3.28
2023-05-06T07:30:43.768Z,2.80
2023-05-06T07:33:11.583Z,2.85
2023-05-06T07:35:39.280Z,3.10
2023-05-06T07:38:06.956Z,2.65
2023-05-06T07:40:34.831Z,2.50
2023-05-06T07:43:04.530Z,3.20
2023-05-06T07:45:32.300Z,3.15
2023-05-06T07:48:00.200Z,3.08
2023-05-06T07:50:27.904Z,2.60
2023-05-06T07:52:55.589Z,2.72
2023-05-06T07:55:23.330Z,3.25
2023-05-06T07:57:51.140Z,3.53
2023-05-06T08:00:20.439Z,3.35
2023-05-06T08:02:48.676Z,2.97
2023-05-06T08:05:17.275Z,2.80
2023-05-06T08:07:45.128Z,5.82
2023-05-06T08:10:12.878Z,3.50
2023-05-06T08:12:40.687Z,4.05
2023-05-06T08:15:09.983Z,3.05
2023-05-06T08:17:39.263Z,3.05
2023-05-06T08:20:08.119Z,4.00
2023-05-06T08:22:35.838Z,3.03
2023-05-06T08:25:03.940Z,3.08
2023-05-06T08:27:31.680Z,2.80
2023-05-06T08:29:59.405Z,2.30
2023-05-06T08:32:27.160Z,2.92
2023-05-06T08:34:56.338Z,3.00
2023-05-06T08:37:24.100Z,3.03
2023-05-06T08:39:51.774Z,3.75
2023-05-06T08:42:19.554Z,2.90
2023-05-06T08:44:47.407Z,3.00
2023-05-06T08:47:15.151Z,2.60
2023-05-06T08:49:42.881Z,3.50
2023-05-06T08:52:12.690Z,2.60
2023-05-06T08:54:42.021Z,2.25
2023-05-06T08:57:12.860Z,2.83
2023-05-06T08:59:42.441Z,2.40
2023-05-06T09:02:11.236Z,2.15
2023-05-06T09:04:39.708Z,2.38
2023-05-06T09:07:07.420Z,1.98
2023-05-06T09:09:36.882Z,2.22
2023-05-06T09:12:05.835Z,1.98
2023-05-06T09:14:33.501Z,2.70
2023-05-06T09:17:01.354Z,2.45
2023-05-06T09:19:29.152Z,1.70
2023-05-06T09:21:57.283Z,2.30
2023-05-06T09:24:25.554Z,1.83
2023-05-06T09:26:55.508Z,1.85
2023-05-06T09:29:23.277Z,1.98
2023-05-06T09:31:52.655Z,1.67
2023-05-06T09:34:21.141Z,2.22
2023-05-06T09:36:48.876Z,1.75
2023-05-06T09:39:16.554Z,1.63
2023-05-06T09:41:44.560Z,2.35
2023-05-06T09:44:14.065Z,1.70
2023-05-06T09:46:42.189Z,1.55
2023-05-06T09:49:10.261Z,1.80
2023-05-06T09:51:38.706Z,1.67
2023-05-06T09:54:07.034Z,1.45
2023-05-06T09:56:35.424Z,1.40
2023-05-06T09:59:04.254Z,1.50
2023-05-06T10:01:37.570Z,1.58
2023-05-06T10:04:09.669Z,1.30
2023-05-06T10:06:40.771Z,1.70
2023-05-06T10:09:09.346Z,1.15
2023-05-06T10:11:38.615Z,1.58
2023-05-06T10:14:07.695Z,1.75
2023-05-06T10:16:40.056Z,1.20
2023-05-06T10:19:09.345Z,1.58
2023-05-06T10:21:41.195Z,1.27
2023-05-06T10:24:12.390Z,1.50
2023-05-06T10:26:42.024Z,1.17
2023-05-06T10:29:11.204Z,1.20
2023-05-06T10:31:47.303Z,1.63
2023-05-06T10:34:18.395Z,1.70
2023-05-06T10:36:47.378Z,0.93
2023-05-06T10:39:15.444Z,1.17
2023-05-06T10:41:43.374Z,1.23
2023-05-06T10:44:11.919Z,1.38
2023-05-06T10:46:59.722Z,1.08
2023-05-06T10:49:27.861Z,0.93
2023-05-06T10:52:17.211Z,1.05
2023-05-06T10:54:52.188Z,1.25
2023-05-06T10:57:22.499Z,1.10
2023-05-06T11:00:00.046Z,1.23
2023-05-06T11:02:31.657Z,0.80
2023-05-06T11:05:01.900Z,1.38
2023-05-06T11:07:29.711Z,1.15
2023-05-06T11:09:59.305Z,1.25
2023-05-06T11:12:47.640Z,0.80
2023-05-06T11:15:39.146Z,1.05
2023-05-06T11:18:48.303Z,1.42
2023-05-06T11:21:40.145Z,1.60
2023-05-06T11:24:12.122Z,1.08
2023-05-06T11:26:44.083Z,1.60
2023-05-06T11:29:12.116Z,0.93
2023-05-06T11:31:42.006Z,1.25
2023-05-06T11:34:13.332Z,1.50
2023-05-06T11:36:56.734Z,1.30
2023-05-06T11:39:24.515Z,1.17
2023-05-06T11:41:54.322Z,1.10
2023-05-06T11:44:26.468Z,1.00
2023-05-06T11:46:57.994Z,1.00
2023-05-06T11:49:27.923Z,0.95
2023-05-06T11:51:57.009Z,0.90
2023-05-06T11:54:27.617Z,1.02
2023-05-06T11:56:57.278Z,1.20
2023-05-06T11:59:30.543Z,1.13
2023-05-06T12:01:59.841Z,0.80
2023-05-06T12:04:29.382Z,1.00
2023-05-06T12:06:58.025Z,1.20
2023-05-06T12:09:26.401Z,1.40
2023-05-06T12:11:55.029Z,0.70
2023-05-06T12:14:23.187Z,1.33
2023-05-06T12:16:51.090Z,1.00
2023-05-06T12:19:18.914Z,1.05
2023-05-06T12:21:48.000Z,1.08
2023-05-06T12:24:15.796Z,1.20
2023-05-06T12:26:45.733Z,0.90
2023-05-06T12:29:17.212Z,0.80
2023-05-06T12:31:47.083Z,1.00
2023-05-06T12:34:16.098Z,0.98
2023-05-06T12:36:45.680Z,0.95
2023-05-06T12:39:17.510Z,1.10
2023-05-06T12:41:46.451Z,1.08
2023-05-06T12:44:33.783Z,0.95
2023-05-06T12:47:02.983Z,1.30
2023-05-06T12:49:48.530Z,1.27
2023-05-06T12:52:17.070Z,1.50
2023-05-06T12:54:46.500Z,1.00
2023-05-06T12:57:14.587Z,1.50
2023-05-06T12:59:44.154Z,1.50
2023-05-06T13:02:12.017Z,1.00
2023-05-06T13:04:39.848Z,1.15
2023-05-06T13:07:07.675Z,0.85
2023-05-06T13:09:35.513Z,1.00
2023-05-06T13:12:05.429Z,0.85
2023-05-06T13:14:33.150Z,1.10
2023-05-06T13:17:04.627Z,0.93
2023-05-06T13:19:33.472Z,1.15
2023-05-06T13:22:02.086Z,1.35
2023-05-06T13:24:29.938Z,1.23
2023-05-06T13:26:59.826Z,1.02
2023-05-06T13:29:29.580Z,1.77
2023-05-06T13:31:57.681Z,1.23
2023-05-06T13:34:25.941Z,1.45
2023-05-06T13:36:54.566Z,1.27
2023-05-06T13:39:22.584Z,1.10
2023-05-06T13:41:50.998Z,1.08
2023-05-06T13:44:19.022Z,1.30
2023-05-06T13:46:48.397Z,0.98
2023-05-06T13:49:16.189Z,0.80
2023-05-06T13:51:43.936Z,1.02
2023-05-06T13:54:11.714Z,0.73
2023-05-06T13:56:39.493Z,1.30
2023-05-06T13:59:08.149Z,0.90
2023-05-06T14:01:36.606Z,0.88
2023-05-06T14:04:06.028Z,0.82
2023-05-06T14:06:33.771Z,1.27
2023-05-06T14:09:01.546Z,0.90
2023-05-06T14:11:29.269Z,1.08
2023-05-06T14:13:57.339Z,1.10
2023-05-06T14:16:25.128Z,1.00
2023-05-06T14:18:53.472Z,1.00
2023-05-06T14:21:23.138Z,1.63
2023-05-06T14:23:50.860Z,1.10
2023-05-06T14:26:18.577Z,1.15
2023-05-06T14:28:46.239Z,1.10
2023-05-06T14:31:13.927Z,1.27
2023-05-06T14:33:41.649Z,1.20
2023-05-06T14:36:09.756Z,1.30
2023-05-06T14:38:38.827Z,1.33
2023-05-06T14:41:06.632Z,1.00
2023-05-06T14:43:34.361Z,0.68
2023-05-06T14:46:02.217Z,1.02
2023-05-06T14:48:30.046Z,1.10
2023-05-06T14:50:57.734Z,1.00
2023-05-06T14:53:25.429Z,1.05
2023-05-06T14:55:56.397Z,0.82
2023-05-06T14:58:24.207Z,1.08
2023-05-06T15:00:52.025Z,1.00
2023-05-06T15:03:19.791Z,1.15
2023-05-06T15:05:47.561Z,0.70
2023-05-06T15:08:15.352Z,1.10
2023-05-06T15:10:43.093Z,1.10
2023-05-06T15:13:12.364Z,1.02
2023-05-06T15:15:40.108Z,0.80
2023-05-06T15:18:07.881Z,1.00
2023-05-06T15:20:35.679Z,1.13
2023-05-06T15:23:03.353Z,1.10
2023-05-06T15:25:36.001Z,1.05
2023-05-06T15:28:05.484Z,0.80
2023-05-06T15:30:34.574Z,1.20
2023-05-06T15:33:03.113Z,1.00
2023-05-06T15:35:31.683Z,1.10
2023-05-06T15:37:59.511Z,0.95
2023-05-06T15:40:27.837Z,0.90
2023-05-06T15:42:55.830Z,0.88
2023-05-06T15:45:23.664Z,1.08
2023-05-06T15:47:54.115Z,0.75
2023-05-06T15:50:32.780Z,1.30
2023-05-06T15:53:02.275Z,0.98
2023-05-06T15:55:34.971Z,1.10
2023-05-06T15:58:09.143Z,1.50
2023-05-06T16:00:36.852Z,1.20
2023-05-06T16:03:08.082Z,1.30
2023-05-06T16:05:37.681Z,2.08
2023-05-06T16:08:05.673Z,1.10
2023-05-06T16:10:35.408Z,1.20
2023-05-06T16:13:03.165Z,1.05
2023-05-06T16:15:30.932Z,1.48
2023-05-06T16:17:58.769Z,1.25
2023-05-06T16:20:27.896Z,1.10
2023-05-06T16:22:55.614Z,1.00
2023-05-06T16:25:23.931Z,1.13
2023-05-06T16:27:51.644Z,1.10
2023-05-06T16:30:19.428Z,1.95
2023-05-06T16:32:47.144Z,1.35
2023-05-06T16:35:15.155Z,1.30
2023-05-06T16:37:44.614Z,1.00
2023-05-06T16:40:13.570Z,1.25
2023-05-06T16:42:41.585Z,1.05
2023-05-06T16:45:09.927Z,1.48
2023-05-06T16:47:37.897Z,1.10
2023-05-06T16:50:06.576Z,1.17
2023-05-06T16:52:34.454Z,1.25
2023-05-06T16:55:04.034Z,1.00
2023-05-06T16:57:31.793Z,1.10
2023-05-06T16:59:59.652Z,1.70
2023-05-06T17:02:27.443Z,1.25
2023-05-06T17:04:55.219Z,1.58
2023-05-06T17:07:23.007Z,1.08
2023-05-06T17:09:50.740Z,1.40
2023-05-06T17:12:20.560Z,1.20
2023-05-06T17:14:48.382Z,1.98
2023-05-06T17:17:16.074Z,1.50
2023-05-06T17:19:43.780Z,1.55
2023-05-06T17:22:11.516Z,1.60
2023-05-06T17:24:39.230Z,1.55
2023-05-06T17:27:06.984Z,1.77
2023-05-06T17:29:36.035Z,1.45
2023-05-06T17:32:03.758Z,1.80
2023-05-06T17:34:32.814Z,1.55
2023-05-06T17:37:02.577Z,1.00
2023-05-06T17:39:30.280Z,1.48
2023-05-06T17:41:57.987Z,1.50
2023-05-06T17:44:25.966Z,1.33
2023-05-06T17:46:55.100Z,1.15
2023-05-06T17:49:23.440Z,1.45
2023-05-06T17:51:51.227Z,1.35
2023-05-06T17:54:19.387Z,1.17
2023-05-06T17:56:50.386Z,1.70
2023-05-06T17:59:19.777Z,1.35
2023-05-06T18:01:47.697Z,1.20
2023-05-06T18:04:17.029Z,1.52
2023-05-06T18:06:45.647Z,1.40
2023-05-06T18:09:13.389Z,1.40
2023-05-06T18:11:41.139Z,1.20
2023-05-06T18:14:09.117Z,1.55
2023-05-06T18:16:37.414Z,1.42
2023-05-06T18:19:05.397Z,1.20
2023-05-06T18:21:35.934Z,1.20
2023-05-06T18:24:15.356Z,1.42
2023-05-06T18:26:45.829Z,1.70
2023-05-06T18:29:14.354Z,2.15
2023-05-06T18:31:42.243Z,1.42
2023-05-06T18:34:10.031Z,1.40
2023-05-06T18:36:39.097Z,1.88
2023-05-06T18:39:07.170Z,1.35
2023-05-06T18:41:34.885Z,1.25
2023-05-06T18:44:03.771Z,1.88
2023-05-06T18:46:31.625Z,1.67
2023-05-06T18:49:00.767Z,1.40
2023-05-06T18:51:28.532Z,1.58
2023-05-06T18:53:57.564Z,2.03
2023-05-06T18:56:25.351Z,1.90
2023-05-06T18:58:53.141Z,1.92
2023-05-06T19:01:21.053Z,1.42
2023-05-06T19:03:48.908Z,1.90
2023-05-06T19:06:16.644Z,1.48
2023-05-06T19:08:44.578Z,1.98
2023-05-06T19:11:18.136Z,1.55
2023-05-06T19:13:46.463Z,1.77
2023-05-06T19:16:14.865Z,1.83
2023-05-06T19:18:42.678Z,1.73
2023-05-06T19:21:10.770Z,1.70
2023-05-06T19:23:38.623Z,2.05
2023-05-06T19:26:06.975Z,1.55
2023-05-06T19:28:36.275Z,1.70
2023-05-06T19:31:07.625Z,1.73
2023-05-06T19:33:35.462Z,1.70
2023-05-06T19:36:03.187Z,1.92
2023-05-06T19:38:30.994Z,1.70
2023-05-06T19:40:58.703Z,1.48
2023-05-06T19:43:26.436Z,1.65
2023-05-06T19:45:56.098Z,2.30
2023-05-06T19:48:24.204Z,1.50
2023-05-06T19:50:53.873Z,1.60
2023-05-06T19:53:22.756Z,1.70
2023-05-06T19:55:50.820Z,1.25
2023-05-06T19:58:19.320Z,2.22
2023-05-06T20:00:47.070Z,1.50
2023-05-06T20:03:16.381Z,1.40
2023-05-06T20:05:44.174Z,1.85
2023-05-06T20:08:12.218Z,1.90
2023-05-06T20:10:40.133Z,1.40
2023-05-06T20:13:07.953Z,1.52
2023-05-06T20:15:36.393Z,1.42
2023-05-06T20:18:04.418Z,1.50
2023-05-06T20:20:35.944Z,2.22
2023-05-06T20:23:04.060Z,1.58
2023-05-06T20:25:31.901Z,1.20
2023-05-06T20:28:00.396Z,1.60
2023-05-06T20:30:28.218Z,1.73
2023-05-06T20:32:56.302Z,1.60
2023-05-06T20:35:24.296Z,1.55
2023-05-06T20:37:54.482Z,2.25
2023-05-06T20:40:22.582Z,1.42
2023-05-06T20:42:50.328Z,1.40
2023-05-06T20:45:18.163Z,1.35
2023-05-06T20:47:45.920Z,1.33
2023-05-06T20:50:17.042Z,2.05
2023-05-06T20:52:46.002Z,1.65
2023-05-06T20:55:15.794Z,1.60
2023-05-06T20:57:44.214Z,1.85
2023-05-06T21:00:12.846Z,1.77
2023-05-06T21:02:41.992Z,1.70
2023-05-06T21:05:10.429Z,1.33
2023-05-06T21:07:38.342Z,1.70
2023-05-06T21:10:07.053Z,1.60
2023-05-06T21:12:36.290Z,1.60
2023-05-06T21:15:04.355Z,1.60
2023-05-06T21:17:32.137Z,2.38
2023-05-06T21:19:59.901Z,1.30
2023-05-06T21:22:27.614Z,1.55
2023-05-06T21:24:55.919Z,1.70
2023-05-06T21:27:23.677Z,2.10
2023-05-06T21:29:52.734Z,1.75
2023-05-06T21:32:20.491Z,1.60
2023-05-06T21:34:48.228Z,2.13
2023-05-06T21:37:15.960Z,1.85
2023-05-06T21:39:43.638Z,1.65
2023-05-06T21:42:11.395Z,2.08
2023-05-06T21:44:39.096Z,1.63
2023-05-06T21:47:08.205Z,1.65
2023-05-06T21:49:35.938Z,1.67
2023-05-06T21:52:03.885Z,2.17
2023-05-06T21:54:32.116Z,1.90
2023-05-06T21:56:59.856Z,1.90
2023-05-06T21:59:27.578Z,2.08
2023-05-06T22:01:55.333Z,2.17
2023-05-06T22:04:24.410Z,2.30
2023-05-06T22:06:52.097Z,2.10
2023-05-06T22:09:21.105Z,2.00
2023-05-06T22:11:48.861Z,2.28
2023-05-06T22:14:18.154Z,2.33
2023-05-06T22:16:47.444Z,1.95
2023-05-06T22:19:15.213Z,2.00
2023-05-06T22:21:44.273Z,2.20
2023-05-06T22:24:11.997Z,2.15
2023-05-06T22:26:40.125Z,2.20
2023-05-06T22:29:07.781Z,2.33
2023-05-06T22:31:35.548Z,2.13
2023-05-06T22:34:04.645Z,1.80
2023-05-06T22:36:33.546Z,2.63
2023-05-06T22:39:02.991Z,2.20
2023-05-06T22:41:30.971Z,2.33
2023-05-06T22:44:00.134Z,2.03
2023-05-06T22:46:28.742Z,2.40
2023-05-06T22:48:56.493Z,1.88
2023-05-06T22:51:24.265Z,2.00
2023-05-06T22:53:52.030Z,1.95
2023-05-06T22:56:21.127Z,2.03
2023-05-06T22:58:48.848Z,2.05
2023-05-06T23:01:16.686Z,2.42
2023-05-06T23:03:44.483Z,2.72
2023-05-06T23:06:12.307Z,2.13
2023-05-06T23:08:40.047Z,2.72
2023-05-06T23:11:08.007Z,2.42
2023-05-06T23:13:37.620Z,2.50
2023-05-06T23:16:07.750Z,2.50
2023-05-06T23:18:35.847Z,2.22
2023-05-06T23:21:03.951Z,2.60
2023-05-06T23:23:32.336Z,2.50
2023-05-06T23:26:00.122Z,2.45
2023-05-06T23:28:27.840Z,1.77
2023-05-06T23:30:56.965Z,2.38
2023-05-06T23:33:24.742Z,2.20
2023-05-06T23:35:52.441Z,2.40
2023-05-06T23:38:20.199Z,2.75
2023-05-06T23:40:47.958Z,2.60
2023-05-06T23:43:15.803Z,2.10
2023-05-06T23:45:43.502Z,2.22
2023-05-06T23:48:12.709Z,2.00
2023-05-06T23:50:40.447Z,2.25
2023-05-06T23:53:08.142Z,2.10
2023-05-06T23:55:36.001Z,2.13
2023-05-06T23:58:03.796Z,2.60
